• Join FlightAware (Why Join?)
  • Login
  • US Flag 
08:48PM EDT


 

Airport Tracker/Info


-or-


 

Live Flight TrackerFlight Track Log ✈ N1808R ✈ 09-Sep-2013 ✈ KCZT - KHQZ

Flight Track Log - Related Links

Times and Time Zones

All times are in EDT time to prevent confusion due to time zone crossing. See the N1808R flight status page for this flight to view local times or setup timezone preferences in your user account.

Time Position Orientation Groundspeed Altitude Reporting Facility
EDT Latitude Longitude Course Direction KTS MPH feet Rate Location/Type
12:00PM 28.7286 -99.6319 41° Northeast 148 170 7,600  Level Houston Center
12:01PM 28.7656 -99.6011 36° Northeast 159 183 8,100 480 Climbing Houston Center
12:02PM 28.8022 -99.5722 35° Northeast 161 185 8,600 480 Climbing Houston Center
12:03PM 28.8392 -99.5400 37° Northeast 164 189 9,100 540 Climbing Houston Center
12:04PM 28.8761 -99.5094 36° Northeast 164 189 9,800 660 Climbing Houston Center
12:05PM 28.7011 -99.6911 41° Northeast  Level Estimated
12:05PM 28.9194 -99.4822 29° Northeast 175 201 10,500  Level Houston Center
12:06PM 28.9650 -99.4489 33° Northeast 168 193 11,200 540 Climbing Houston Center
12:07PM 28.9994 -99.4125 43° Northeast 167 192 11,700 480 Climbing Houston Center
12:08PM 29.0347 -99.3758 42° Northeast 169 194 12,300 540 Climbing Houston Center
12:09PM 29.0719 -99.3386 41° Northeast 175 201 12,900 540 Climbing Houston Center
12:10PM 29.1150 -99.2986 39° Northeast 178 205 13,500 480 Climbing Houston Center
12:11PM 29.1600 -99.2639 34° Northeast 180 207 14,000 480 Climbing Houston Center
12:12PM 29.2022 -99.2319 33° Northeast 182 209 14,500 480 Climbing Houston Center
12:13PM 29.2469 -99.1964 35° Northeast 182 209 15,000 420 Climbing Houston Center
12:14PM 29.2892 -99.1628 35° Northeast 185 213 15,400 240 Climbing Houston Center
12:15PM 29.3322 -99.1214 40° Northeast 188 216 15,500  Climbing Houston Center
12:16PM 29.3758 -99.0781 41° Northeast 204 235 15,500  Level Houston Center
12:17PM 29.4253 -99.0411 33° Northeast 210 242 15,500  Level Houston Center
12:18PM 29.4717 -98.9989 38° Northeast 200 230 15,500  Level Houston Center
12:19PM 29.5131 -98.9589 40° Northeast 195 224 15,500  Level Houston Center
12:20PM 29.5600 -98.9178 37° Northeast 196 226 15,500  Level Houston Center
12:21PM 29.6025 -98.8794 38° Northeast 195 224 15,500  Level Houston Center
12:22PM 29.6492 -98.8392 37° Northeast 195 224 15,500  Level Houston Center
12:23PM 29.6917 -98.8006 38° Northeast 194 223 15,500  Level Houston Center
12:24PM 29.7375 -98.7600 38° Northeast 193 222 15,500  Level Houston Center
12:26PM 29.7806 -98.7225 37° Northeast 193 222 15,500  Level Houston Center
12:27PM 29.8231 -98.6836 38° Northeast 195 224 15,500  Level Houston Center
12:28PM 29.8703 -98.6422 37° Northeast 197 227 15,500  Level Houston Center
12:29PM 29.9136 -98.6033 38° Northeast 199 229 15,500  Level Houston Center
12:30PM 29.9597 -98.5617 38° Northeast 196 226 15,500  Level Houston Center
12:31PM 30.0031 -98.5231 38° Northeast 197 227 15,500  Level Houston Center
12:32PM 30.0500 -98.4822 37° Northeast 196 226 15,500  Level Houston Center
12:33PM 30.0933 -98.4436 38° Northeast 203 234 15,500  Level Houston Center
12:34PM 30.1411 -98.4003 38° Northeast 197 227 15,500  Level Houston Center
12:35PM 30.1847 -98.3611 38° Northeast 200 230 15,500  Level Houston Center
12:36PM 30.2283 -98.3217 38° Northeast 199 229 15,500  Level Houston Center
12:37PM 30.2756 -98.2783 38° Northeast 200 230 15,500  Level Houston Center
12:38PM 30.3161 -98.2414 38° Northeast 201 231 15,500  Level Houston Center
12:39PM 30.3614 -98.2022 37° Northeast 201 231 15,500  Level Houston Center
12:40PM 30.4131 -98.1553 38° Northeast 200 230 15,500  Level Houston Center
12:41PM 30.4564 -98.1156 38° Northeast 198 228 15,500  Level Houston Center
12:42PM 30.5011 -98.0747 38° Northeast 202 232 15,500  Level Houston Center
12:43PM 30.5447 -98.0347 38° Northeast 199 229 15,500  Level Houston Center
12:44PM 30.5897 -97.9950 37° Northeast 200 230 15,500  Level Houston Center
12:45PM 30.6344 -97.9550 38° Northeast 200 230 15,500  Level Houston Center
12:46PM 30.6789 -97.9136 39° Northeast 202 232 15,500  Level Houston Center
12:47PM 30.7222 -97.8736 38° Northeast 199 229 15,500  Level Houston Center
12:48PM 30.7731 -97.8278 38° Northeast 197 227 15,500  Level Houston Center
12:49PM 30.8172 -97.7878 38° Northeast 198 228 15,500  Level Houston Center
12:50PM 30.8608 -97.7478 38° Northeast 197 227 15,500  Level Houston Center
12:51PM 30.9047 -97.7078 38° Northeast 198 228 15,500  Level Houston Center
12:52PM 30.9492 -97.6675 38° Northeast 199 229 15,500  Level Houston Center
12:53PM 30.9933 -97.6264 39° Northeast 200 230 15,500  Level Houston Center
12:55PM 31.0383 -97.5853 38° Northeast 202 232 15,500  Level Houston Center
12:57PM 31.1278 -97.5025 38° Northeast 203 234 15,500  Level Houston Center
12:58PM 31.1806 -97.4536 38° Northeast 204 235 15,500  Level Houston Center
12:59PM 31.2256 -97.4133 37° Northeast 203 234 15,500  Level Houston Center
01:00PM 31.2753 -97.3797 30° Northeast 202 232 15,500  Level Houston Center
01:01PM 31.3258 -97.3494 27° Northeast 203 234 15,500  Level Houston Center
01:02PM 31.3742 -97.3164 30° Northeast 200 230 15,500  Level Houston Center
01:03PM 31.4219 -97.2814 32° Northeast 200 230 15,500  Level Houston Center
01:04PM 31.4714 -97.2467 31° Northeast 204 235 15,500  Level Houston Center
01:05PM 31.5203 -97.2128 31° Northeast 203 234 15,500  Level Houston Center
01:06PM 31.5781 -97.1747 29° Northeast 203 234 15,500  Level Houston Center
01:07PM 31.6264 -97.1400 31° Northeast 201 231 15,500  Level Fort Worth Center
01:08PM 31.6681 -97.1131 29° Northeast 201 231 15,500  Level Fort Worth Center
01:09PM 31.7161 -97.0811 29° Northeast 206 237 15,500 -360 Level Fort Worth Center
01:10PM 31.7661 -97.0444 32° Northeast 206 237 14,800 -720 Descending Fort Worth Center
01:11PM 31.8203 -97.0075 30° Northeast 215 247 14,100 -840 Descending Fort Worth Center
01:12PM 31.8744 -96.9681 32° Northeast 221 254 13,200 -960 Descending Fort Worth Center
01:13PM 31.9286 -96.9311 30° Northeast 227 261 12,200 -1,020 Descending Fort Worth Center
01:14PM 31.9867 -96.8917 30° Northeast 227 261 11,200 -960 Descending Fort Worth Center
01:15PM 32.0408 -96.8522 32° Northeast 222 255 10,300 -900 Descending Fort Worth Center
01:16PM 32.0931 -96.8150 31° Northeast 222 255 9,400 -900 Descending Fort Worth Center
01:17PM 32.1469 -96.7803 29° Northeast 222 255 8,600 -900 Descending Fort Worth Center
01:18PM 32.1969 -96.7456 30° Northeast 217 250 7,700 -900 Descending Fort Worth Center
01:19PM 32.2511 -96.7058 32° Northeast 217 250 6,900 -840 Descending Fort Worth Center
01:20PM 32.3008 -96.6711 31° Northeast 212 244 6,100 -900 Descending Fort Worth Center
01:21PM 32.3528 -96.6339 31° Northeast 207 238 5,200 -660 Descending Fort Worth Center
01:22PM 32.4008 -96.6014 30° Northeast 207 238 4,800 -420 Descending Fort Worth Center
01:23PM 32.4486 -96.5667 32° Northeast 201 231 4,400 -420 Descending Fort Worth Center
01:24PM 32.4964 -96.5414 24° Northeast 194 223 4,000 -480 Descending Fort Worth Center
01:25PM 32.5506 -96.5361 North 187 215 3,500 -480 Descending Fort Worth Center
01:26PM 32.6047 -96.5256 North 187 215 3,100 -540 Descending Fort Worth Center
01:27PM 32.6569 -96.5153 North 187 215 2,500 -600 Descending Fort Worth Center
01:28PM 32.7069 -96.5122 North 187 215 1,900 -540 Descending Fort Worth Center
01:29PM 32.7508 -96.5044 North 165 190 1,500 -480 Descending Fort Worth Center
01:30PM 32.7803 -96.5264 328° Northwest 132 152 1,000 -240 Descending Fort Worth Center
01:31PM 32.7675 -96.5092 131° Southeast 77 89 1,100 -240 Climbing Fort Worth Center
01:32PM 32.7636 -96.5339 259° West 43 49 600 -540 Descending Fort Worth Center